Petronila, Texas
Current Conditions -  °F | °C
As of 5:15 PM on Wednesday 17 Dec 2014 (Local Time) from KRBO Reporting Station
Clear Clear  
Wind Chill: 73°   Ceiling: Unl
Heat Index: 73°   Visibility: 10mi
Dew Point: 64°   Wind: 18mph
Humidity: 74%   Direction: 140°SE
Pressure: 29.99"   Gusts: NA
Location:  27.7757°N, 97.7554°W
Report Text: KRBO 172315Z AUTO 14016KT 10SM CLR 23/18 A2999 RMK AO2 T02260177
Loading
Personal Weather Stations






























Interactive Weather Map New forecast layout! Learn more

10-Day Weather Forecast

Advertisements
Track Severe Weather on mobile